createdAt,value
2018-09-01T00:01:04.130Z,101862.00
2018-09-01T00:03:32.925Z,101859.00
2018-09-01T00:06:01.729Z,101864.00
2018-09-01T00:08:30.526Z,101863.00
2018-09-01T00:10:59.353Z,101854.00
2018-09-01T00:13:28.157Z,101853.00
2018-09-01T00:15:57.374Z,101852.00
2018-09-01T00:18:26.176Z,101848.00
2018-09-01T00:20:55.366Z,101856.00
2018-09-01T00:23:24.216Z,101856.00
2018-09-01T00:25:53.014Z,101855.00
2018-09-01T00:28:21.810Z,101849.00
2018-09-01T00:30:53.643Z,101853.00
2018-09-01T00:33:22.458Z,101856.00
2018-09-01T00:35:51.370Z,101850.00
2018-09-01T00:38:25.708Z,101853.00
2018-09-01T00:40:54.504Z,101850.00
2018-09-01T00:43:23.290Z,101852.00
2018-09-01T00:45:52.104Z,101853.00
2018-09-01T00:48:20.902Z,101860.00
2018-09-01T00:50:50.063Z,101870.00
2018-09-01T00:53:18.875Z,101873.00
2018-09-01T00:55:47.706Z,101862.00
2018-09-01T00:58:16.494Z,101878.00
2018-09-01T01:00:45.756Z,101872.00
2018-09-01T01:03:14.546Z,101875.00
2018-09-01T01:05:43.382Z,101887.00
2018-09-01T01:08:12.199Z,101889.00
2018-09-01T01:10:41.005Z,101887.00
2018-09-01T01:13:09.830Z,101891.00
2018-09-01T01:15:38.641Z,101886.00
2018-09-01T01:18:07.562Z,101896.00
2018-09-01T01:20:36.389Z,101900.00
2018-09-01T01:23:05.930Z,101907.00
2018-09-01T01:25:34.731Z,101908.00
2018-09-01T01:28:03.550Z,101912.00
2018-09-01T01:30:32.384Z,101898.00
2018-09-01T01:33:01.194Z,101899.00
2018-09-01T01:35:30.017Z,101894.00
2018-09-01T01:37:58.881Z,101899.00
2018-09-01T01:40:27.678Z,101882.00
2018-09-01T01:42:56.462Z,101879.00
2018-09-01T01:45:25.660Z,101876.00
2018-09-01T01:47:54.500Z,101876.00
2018-09-01T01:50:23.279Z,101872.00
2018-09-01T01:52:52.419Z,101869.00
2018-09-01T01:55:21.235Z,101880.00
2018-09-01T01:57:52.922Z,101883.00
2018-09-01T02:00:21.732Z,101895.00
2018-09-01T02:02:50.527Z,101898.00
2018-09-01T02:05:20.434Z,101894.00
2018-09-01T02:07:50.370Z,101900.00
2018-09-01T02:10:19.179Z,101898.00
2018-09-01T02:12:47.976Z,101897.00
2018-09-01T02:15:16.785Z,101905.00
2018-09-01T02:17:45.633Z,101911.00
2018-09-01T02:20:14.471Z,101907.00
2018-09-01T02:22:43.269Z,101922.00
2018-09-01T02:25:18.523Z,101912.00
2018-09-01T02:27:47.319Z,101924.00
2018-09-01T02:30:16.147Z,101916.00
2018-09-01T02:32:44.972Z,101924.00
2018-09-01T02:35:13.781Z,101932.00
2018-09-01T02:37:42.580Z,101926.00
2018-09-01T02:40:11.412Z,101928.00
2018-09-01T02:42:40.202Z,101915.00
2018-09-01T02:45:09.002Z,101922.00
2018-09-01T02:47:38.186Z,101926.00
2018-09-01T02:55:06.080Z,101936.00
2018-09-01T02:57:34.873Z,101928.00
2018-09-01T03:00:06.703Z,101933.00
2018-09-01T03:02:41.436Z,101928.00
2018-09-01T03:05:10.259Z,101926.00
2018-09-01T03:07:39.054Z,101932.00
2018-09-01T03:10:08.707Z,101932.00
2018-09-01T03:12:37.514Z,101925.00
2018-09-01T03:15:07.843Z,101927.00
2018-09-01T03:17:36.639Z,101925.00
2018-09-01T03:20:05.479Z,101924.00
2018-09-01T03:22:34.271Z,101925.00
2018-09-01T03:25:03.345Z,101926.00
2018-09-01T03:27:32.151Z,101925.00
2018-09-01T03:30:00.995Z,101929.00
2018-09-01T03:32:29.848Z,101937.00
2018-09-01T03:34:58.695Z,101935.00
2018-09-01T03:37:27.503Z,101932.00
2018-09-01T03:39:56.304Z,101930.00
2018-09-01T03:42:25.123Z,101930.00
2018-09-01T03:44:53.924Z,101942.00
2018-09-01T03:47:23.215Z,101930.00
2018-09-01T03:49:51.989Z,101935.00
2018-09-01T03:52:20.816Z,101929.00
2018-09-01T03:54:49.617Z,101935.00
2018-09-01T03:57:18.993Z,101937.00
2018-09-01T03:59:47.778Z,101935.00
2018-09-01T04:02:16.607Z,101933.00
2018-09-01T04:04:45.420Z,101937.00
2018-09-01T04:07:14.245Z,101949.00
2018-09-01T04:09:43.331Z,101942.00
2018-09-01T04:12:12.140Z,101946.00
2018-09-01T04:14:40.931Z,101953.00
2018-09-01T04:17:09.736Z,101941.00
2018-09-01T04:19:38.574Z,101947.00
2018-09-01T04:22:07.429Z,101949.00
2018-09-01T04:24:36.222Z,101941.00
2018-09-01T04:27:05.025Z,101944.00
2018-09-01T04:29:33.816Z,101951.00
2018-09-01T04:32:03.273Z,101956.00
2018-09-01T04:34:32.043Z,101960.00
2018-09-01T04:37:00.841Z,101958.00
2018-09-01T04:39:29.645Z,101954.00
2018-09-01T04:41:58.479Z,101958.00
2018-09-01T04:44:27.267Z,101967.00
2018-09-01T04:46:56.156Z,101964.00
2018-09-01T04:49:24.899Z,101966.00
2018-09-01T04:51:53.707Z,101967.00
2018-09-01T04:54:22.868Z,101964.00
2018-09-01T04:56:51.652Z,101964.00
2018-09-01T04:59:21.022Z,101973.00
2018-09-01T05:01:49.865Z,101979.00
2018-09-01T05:04:18.651Z,101972.00
2018-09-01T05:06:47.463Z,101973.00
2018-09-01T05:09:16.272Z,101982.00
2018-09-01T05:11:45.061Z,101976.00
2018-09-01T05:14:13.890Z,101985.00
2018-09-01T05:16:42.985Z,101974.00
2018-09-01T05:19:11.790Z,101981.00
2018-09-01T05:21:40.577Z,101988.00
2018-09-01T05:24:09.392Z,101991.00
2018-09-01T05:26:38.189Z,101981.00
2018-09-01T05:29:06.997Z,101988.00
2018-09-01T05:31:35.802Z,102001.00
2018-09-01T05:34:04.588Z,102008.00
2018-09-01T05:36:33.461Z,102005.00
2018-09-01T05:39:02.505Z,102010.00
2018-09-01T05:41:31.315Z,102005.00
2018-09-01T05:44:00.099Z,102009.00
2018-09-01T05:46:28.921Z,102009.00
2018-09-01T05:48:57.723Z,102004.00
2018-09-01T05:51:26.542Z,101999.00
2018-09-01T05:53:55.364Z,101993.00
2018-09-01T05:56:24.175Z,101996.00
2018-09-01T05:58:52.995Z,102008.00
2018-09-01T06:01:22.530Z,102003.00
2018-09-01T06:03:51.314Z,101992.00
2018-09-01T06:06:20.200Z,102005.00
2018-09-01T06:08:48.985Z,102008.00
2018-09-01T06:11:17.790Z,102011.00
2018-09-01T06:13:46.620Z,102016.00
2018-09-01T06:16:15.448Z,102017.00
2018-09-01T06:18:44.253Z,102015.00
2018-09-01T06:21:13.037Z,102024.00
2018-09-01T06:23:42.110Z,102025.00
2018-09-01T06:26:10.923Z,102022.00
2018-09-01T06:28:44.518Z,102020.00
2018-09-01T06:31:13.307Z,102021.00
2018-09-01T06:33:42.086Z,102025.00
2018-09-01T06:36:10.889Z,102025.00
2018-09-01T06:38:39.673Z,102033.00
2018-09-01T06:41:08.483Z,102033.00
2018-09-01T06:43:37.511Z,102034.00
2018-09-01T06:46:06.716Z,102029.00
2018-09-01T06:48:35.545Z,102051.00
2018-09-01T06:51:04.341Z,102036.00
2018-09-01T06:53:33.139Z,102030.00
2018-09-01T06:56:01.961Z,102041.00
2018-09-01T06:58:30.791Z,102044.00
2018-09-01T07:00:59.574Z,102041.00
2018-09-01T07:03:28.777Z,102046.00
2018-09-01T07:05:57.862Z,102048.00
2018-09-01T07:08:26.770Z,102059.00
2018-09-01T07:10:56.209Z,102054.00
2018-09-01T07:13:48.532Z,102057.00
2018-09-01T07:16:17.325Z,102066.00
2018-09-01T07:18:46.094Z,102059.00
2018-09-01T07:21:15.022Z,102066.00
2018-09-01T07:23:43.795Z,102057.00
2018-09-01T07:26:12.572Z,102062.00
2018-09-01T07:28:41.426Z,102066.00
2018-09-01T07:31:10.693Z,102061.00
2018-09-01T07:33:39.528Z,102066.00
2018-09-01T07:36:08.355Z,102071.00
2018-09-01T07:38:37.149Z,102072.00
2018-09-01T07:41:06.367Z,102076.00
2018-09-01T07:43:35.523Z,102072.00
2018-09-01T07:46:04.347Z,102062.00
2018-09-01T07:48:33.127Z,102076.00
2018-09-01T07:51:02.199Z,102074.00
2018-09-01T07:53:30.985Z,102066.00
2018-09-01T07:55:59.866Z,102082.00
2018-09-01T07:58:28.576Z,102076.00
2018-09-01T08:00:57.415Z,102080.00
2018-09-01T08:03:26.219Z,102090.00
2018-09-01T08:05:55.519Z,102092.00
2018-09-01T08:08:24.359Z,102093.00
2018-09-01T08:10:53.235Z,102089.00
2018-09-01T08:13:22.075Z,102099.00
2018-09-01T08:15:50.907Z,102101.00
2018-09-01T08:18:19.743Z,102102.00
2018-09-01T08:20:48.569Z,102101.00
2018-09-01T08:23:17.358Z,102112.00
2018-09-01T08:25:46.178Z,102086.00
2018-09-01T08:28:15.140Z,102110.00
2018-09-01T08:30:44.017Z,102112.00
2018-09-01T08:33:12.814Z,102112.00
2018-09-01T08:35:41.625Z,102112.00
2018-09-01T08:38:10.458Z,102114.00
2018-09-01T08:40:39.325Z,102116.00
2018-09-01T08:43:08.122Z,102115.00
2018-09-01T08:45:36.963Z,102120.00
2018-09-01T08:48:06.160Z,102113.00
2018-09-01T08:50:35.455Z,102115.00
2018-09-01T08:53:04.343Z,102111.00
2018-09-01T08:55:33.133Z,102121.00
2018-09-01T08:58:01.963Z,102115.00
2018-09-01T09:00:30.871Z,102126.00
2018-09-01T09:02:59.945Z,102125.00
2018-09-01T09:05:28.831Z,102128.00
2018-09-01T09:07:58.007Z,102116.00
2018-09-01T09:10:26.807Z,102131.00
2018-09-01T09:12:56.154Z,102114.00
2018-09-01T09:15:24.979Z,102128.00
2018-09-01T09:17:53.798Z,102128.00
2018-09-01T09:20:22.647Z,102131.00
2018-09-01T09:22:51.454Z,102134.00
2018-09-01T09:25:20.262Z,102134.00
2018-09-01T09:27:49.046Z,102130.00
2018-09-01T09:30:17.970Z,102122.00
2018-09-01T09:32:46.863Z,102128.00
2018-09-01T09:35:15.972Z,102130.00
2018-09-01T09:37:44.783Z,102122.00
2018-09-01T09:40:13.633Z,102120.00
2018-09-01T09:42:42.454Z,102116.00
2018-09-01T09:45:11.341Z,102127.00
2018-09-01T09:47:40.141Z,102125.00
2018-09-01T09:50:08.941Z,102128.00
2018-09-01T09:52:37.743Z,102133.00
2018-09-01T09:55:08.401Z,102126.00
2018-09-01T09:57:37.335Z,102116.00
2018-09-01T10:00:08.611Z,102127.00
2018-09-01T10:02:37.407Z,102116.00
2018-09-01T10:05:08.108Z,102105.00
2018-09-01T10:07:36.882Z,102101.00
2018-09-01T10:10:06.003Z,102100.00
2018-09-01T10:12:34.801Z,102110.00
2018-09-01T10:15:03.645Z,102115.00
2018-09-01T10:17:32.439Z,102116.00
2018-09-01T10:20:01.626Z,102118.00
2018-09-01T10:22:30.374Z,102117.00
2018-09-01T10:24:59.164Z,102112.00
2018-09-01T10:27:27.987Z,102111.00
2018-09-01T10:29:59.647Z,102106.00
2018-09-01T10:32:28.466Z,102115.00
2018-09-01T10:34:57.286Z,102113.00
2018-09-01T10:37:26.207Z,102104.00
2018-09-01T10:39:54.996Z,102113.00
2018-09-01T10:42:23.959Z,102096.00
2018-09-01T10:44:52.775Z,102106.00
2018-09-01T10:47:21.568Z,102101.00
2018-09-01T10:49:50.360Z,102102.00
2018-09-01T10:52:19.419Z,102102.00
2018-09-01T10:54:48.202Z,102114.00
2018-09-01T10:57:17.054Z,102112.00
2018-09-01T10:59:45.940Z,102103.00
2018-09-01T11:02:14.697Z,102107.00
2018-09-01T11:04:43.648Z,102112.00
2018-09-01T11:07:12.454Z,102112.00
2018-09-01T11:09:41.250Z,102115.00
2018-09-01T11:12:10.462Z,102116.00
2018-09-01T11:14:39.271Z,102116.00
2018-09-01T11:17:08.057Z,102108.00
2018-09-01T11:19:36.866Z,102111.00
2018-09-01T11:22:05.737Z,102113.00
2018-09-01T11:24:34.527Z,102111.00
2018-09-01T11:27:03.457Z,102105.00
2018-09-01T11:29:32.233Z,102109.00
2018-09-01T11:32:01.165Z,102108.00
2018-09-01T11:34:29.988Z,102115.00
2018-09-01T11:36:58.837Z,102109.00
2018-09-01T11:39:27.640Z,102101.00
2018-09-01T11:41:56.551Z,102100.00
2018-09-01T11:44:25.360Z,102100.00
2018-09-01T11:46:54.172Z,102105.00
2018-09-01T11:49:23.082Z,102099.00
2018-09-01T11:51:52.188Z,102099.00
2018-09-01T11:54:20.995Z,102008.00
2018-09-01T11:56:49.815Z,102092.00
2018-09-01T11:59:18.603Z,102095.00
2018-09-01T12:01:47.393Z,102093.00
2018-09-01T12:04:16.234Z,102104.00
2018-09-01T12:06:45.040Z,102103.00
2018-09-01T12:09:13.956Z,102095.00
2018-09-01T12:11:43.017Z,102094.00
2018-09-01T12:14:12.240Z,102086.00
2018-09-01T12:16:47.883Z,102082.00
2018-09-01T12:19:16.691Z,102087.00
2018-09-01T12:21:45.513Z,102088.00
2018-09-01T12:24:14.417Z,102089.00
2018-09-01T12:26:43.242Z,102084.00
2018-09-01T12:29:12.052Z,102073.00
2018-09-01T12:31:41.188Z,102074.00
2018-09-01T12:34:10.042Z,102075.00
2018-09-01T12:36:38.858Z,102082.00
2018-09-01T12:39:07.694Z,102077.00
2018-09-01T12:41:36.479Z,102068.00
2018-09-01T12:44:05.319Z,102073.00
2018-09-01T12:46:34.113Z,102067.00
2018-09-01T12:49:03.107Z,102075.00
2018-09-01T12:51:31.929Z,102066.00
2018-09-01T12:54:01.122Z,102069.00
2018-09-01T12:56:30.110Z,102080.00
2018-09-01T12:58:58.935Z,102077.00
2018-09-01T13:01:34.888Z,102067.00
2018-09-01T13:04:03.707Z,102071.00
2018-09-01T13:06:32.518Z,102072.00
2018-09-01T13:09:01.455Z,102069.00
2018-09-01T13:11:30.250Z,102077.00
2018-09-01T13:13:59.061Z,102070.00
2018-09-01T13:16:28.602Z,102081.00
2018-09-01T13:18:57.399Z,102078.00
2018-09-01T13:21:26.211Z,102079.00
2018-09-01T13:23:55.063Z,102086.00
2018-09-01T13:26:23.963Z,102076.00
2018-09-01T13:28:52.839Z,102083.00
2018-09-01T13:31:21.716Z,102081.00
2018-09-01T13:33:50.521Z,102078.00
2018-09-01T13:36:19.635Z,102080.00
2018-09-01T13:38:48.620Z,102073.00
2018-09-01T13:41:17.428Z,102077.00
2018-09-01T13:43:46.260Z,102079.00
2018-09-01T13:46:21.540Z,102078.00
2018-09-01T13:48:50.348Z,102077.00
2018-09-01T13:51:19.359Z,102084.00
2018-09-01T13:53:48.238Z,102081.00
2018-09-01T13:56:17.059Z,102087.00
2018-09-01T13:58:45.848Z,102091.00
2018-09-01T14:01:15.100Z,102088.00
2018-09-01T14:03:43.916Z,102081.00
2018-09-01T14:06:12.708Z,102090.00
2018-09-01T14:08:41.833Z,102087.00
2018-09-01T14:11:10.628Z,102086.00
2018-09-01T14:13:39.426Z,102098.00
2018-09-01T14:16:08.278Z,102093.00
2018-09-01T14:18:37.443Z,102086.00
2018-09-01T14:21:06.484Z,102086.00
2018-09-01T14:23:35.491Z,102081.00
2018-09-01T14:26:04.299Z,102092.00
2018-09-01T14:28:33.093Z,102091.00
2018-09-01T14:31:01.940Z,102080.00
2018-09-01T14:33:30.744Z,102083.00
2018-09-01T14:36:04.073Z,102096.00
2018-09-01T14:38:28.383Z,102089.00
2018-09-01T14:40:57.178Z,102080.00
2018-09-01T14:43:26.031Z,102087.00
2018-09-01T14:45:54.963Z,102092.00
2018-09-01T14:48:23.810Z,102090.00
2018-09-01T14:50:52.616Z,102088.00
2018-09-01T14:53:21.560Z,102094.00
2018-09-01T14:55:50.345Z,102086.00
2018-09-01T14:58:19.149Z,102092.00
2018-09-01T15:00:47.972Z,102085.00
2018-09-01T15:03:16.802Z,102090.00
2018-09-01T15:05:45.601Z,102091.00
2018-09-01T15:08:14.718Z,102092.00
2018-09-01T15:10:43.549Z,102104.00
2018-09-01T15:13:12.326Z,102087.00
2018-09-01T15:15:41.174Z,102098.00
2018-09-01T15:18:10.008Z,102093.00
2018-09-01T15:20:39.518Z,102091.00
2018-09-01T15:23:08.323Z,102092.00
2018-09-01T15:25:37.234Z,102089.00
2018-09-01T15:28:06.093Z,102094.00
2018-09-01T15:30:35.166Z,102090.00
2018-09-01T15:33:03.955Z,102091.00
2018-09-01T15:35:32.935Z,102089.00
2018-09-01T15:38:01.593Z,102086.00
2018-09-01T15:40:30.392Z,102091.00
2018-09-01T15:42:59.243Z,102088.00
2018-09-01T15:45:28.414Z,102091.00
2018-09-01T15:47:57.248Z,102095.00
2018-09-01T15:50:26.127Z,102095.00
2018-09-01T15:52:55.298Z,102100.00
2018-09-01T15:55:24.091Z,102099.00
2018-09-01T15:57:52.909Z,102102.00
2018-09-01T16:00:21.751Z,102101.00
2018-09-01T16:02:50.583Z,102097.00
2018-09-01T16:05:19.395Z,102106.00
2018-09-01T16:07:48.215Z,102102.00
2018-09-01T16:10:17.080Z,102101.00
2018-09-01T16:12:45.940Z,102107.00
2018-09-01T16:15:15.239Z,102106.00
2018-09-01T16:17:43.999Z,102110.00
2018-09-01T16:20:12.811Z,102110.00
2018-09-01T16:22:41.914Z,102114.00
2018-09-01T16:25:10.728Z,102121.00
2018-09-01T16:27:39.518Z,102105.00
2018-09-01T16:30:08.960Z,102110.00
2018-09-01T16:32:37.821Z,102117.00
2018-09-01T16:35:08.616Z,102107.00
2018-09-01T16:37:37.699Z,102112.00
2018-09-01T16:40:11.521Z,102111.00
2018-09-01T16:42:40.343Z,102108.00
2018-09-01T16:45:09.335Z,102112.00
2018-09-01T16:47:38.169Z,102103.00
2018-09-01T16:50:08.241Z,102105.00
2018-09-01T16:52:37.118Z,102109.00
2018-09-01T16:55:06.039Z,102109.00
2018-09-01T16:57:34.991Z,102114.00
2018-09-01T17:00:03.948Z,102108.00
2018-09-01T17:02:32.814Z,102114.00
2018-09-01T17:05:01.667Z,102110.00
2018-09-01T17:07:30.455Z,102117.00
2018-09-01T17:09:59.241Z,102126.00
2018-09-01T17:12:28.049Z,102132.00
2018-09-01T17:14:56.879Z,102140.00
2018-09-01T17:17:25.683Z,102140.00
2018-09-01T17:19:54.666Z,102143.00
2018-09-01T17:22:23.475Z,102147.00
2018-09-01T17:24:52.660Z,102149.00
2018-09-01T17:27:21.480Z,102148.00
2018-09-01T17:29:50.287Z,102145.00
2018-09-01T17:32:19.081Z,102144.00
2018-09-01T17:34:47.914Z,102158.00
2018-09-01T17:37:16.709Z,102146.00
2018-09-01T17:39:45.495Z,102150.00
2018-09-01T17:42:14.402Z,102145.00
2018-09-01T17:44:43.178Z,102152.00
2018-09-01T17:47:11.971Z,102158.00
2018-09-01T17:49:40.802Z,102157.00
2018-09-01T17:52:09.625Z,102156.00
2018-09-01T17:54:38.444Z,102164.00
2018-09-01T17:57:07.328Z,102157.00
2018-09-01T17:59:36.167Z,102160.00
2018-09-01T18:02:05.031Z,102163.00
2018-09-01T18:04:33.963Z,102156.00
2018-09-01T18:07:02.795Z,102162.00
2018-09-01T18:09:31.635Z,102170.00
2018-09-01T18:12:00.441Z,102165.00
2018-09-01T18:14:29.270Z,102170.00
2018-09-01T18:16:58.150Z,102168.00
2018-09-01T18:19:27.052Z,102159.00
2018-09-01T18:21:55.833Z,102169.00
2018-09-01T18:24:24.630Z,102177.00
2018-09-01T18:26:54.219Z,102181.00
2018-09-01T18:29:23.031Z,102149.00
2018-09-01T18:31:51.842Z,102180.00
2018-09-01T18:34:20.655Z,102184.00
2018-09-01T18:36:52.355Z,102189.00
2018-09-01T18:39:21.233Z,102191.00
2018-09-01T18:41:50.072Z,102187.00
2018-09-01T18:44:19.939Z,102185.00
2018-09-01T18:46:49.142Z,102195.00
2018-09-01T18:49:17.983Z,102192.00
2018-09-01T18:51:46.817Z,102200.00
2018-09-01T18:54:15.764Z,102201.00
2018-09-01T18:56:44.490Z,102198.00
2018-09-01T18:59:13.311Z,102198.00
2018-09-01T19:01:42.121Z,102208.00
2018-09-01T19:04:10.966Z,102204.00
2018-09-01T19:06:39.778Z,102207.00
2018-09-01T19:09:08.723Z,102202.00
2018-09-01T19:11:37.807Z,102218.00
2018-09-01T19:14:06.723Z,102215.00
2018-09-01T19:16:35.572Z,102208.00
2018-09-01T19:19:04.371Z,102218.00
2018-09-01T19:21:33.188Z,102221.00
2018-09-01T19:24:01.999Z,102228.00
2018-09-01T19:26:30.845Z,102222.00
2018-09-01T19:28:59.978Z,102226.00
2018-09-01T19:31:29.171Z,102233.00
2018-09-01T19:33:57.993Z,102231.00
2018-09-01T19:36:26.789Z,102232.00
2018-09-01T19:38:55.625Z,102230.00
2018-09-01T19:41:24.444Z,102244.00
2018-09-01T19:43:53.244Z,102241.00
2018-09-01T19:46:22.123Z,102244.00
2018-09-01T19:48:50.927Z,102246.00
2018-09-01T19:51:19.858Z,102239.00
2018-09-01T19:53:48.976Z,102241.00
2018-09-01T19:56:17.805Z,102240.00
2018-09-01T19:58:46.594Z,102243.00
2018-09-01T20:01:15.448Z,102247.00
2018-09-01T20:03:44.301Z,102244.00
2018-09-01T20:06:13.122Z,102252.00
2018-09-01T20:08:41.965Z,102260.00
2018-09-01T20:11:10.775Z,102251.00
2018-09-01T20:13:39.619Z,102255.00
2018-09-01T20:16:08.699Z,102251.00
2018-09-01T20:18:37.504Z,102265.00
2018-09-01T20:21:06.358Z,102254.00
2018-09-01T20:23:35.185Z,102271.00
2018-09-01T20:26:04.086Z,102263.00
2018-09-01T20:28:32.876Z,102266.00
2018-09-01T20:31:01.858Z,102270.00
2018-09-01T20:33:30.677Z,102265.00
2018-09-01T20:35:59.509Z,102270.00
2018-09-01T20:38:29.336Z,102269.00
2018-09-01T20:40:58.155Z,102258.00
2018-09-01T20:43:26.967Z,102276.00
2018-09-01T20:45:55.836Z,102273.00
2018-09-01T20:48:24.637Z,102278.00
2018-09-01T20:50:53.457Z,102286.00
2018-09-01T20:53:22.291Z,102277.00
2018-09-01T20:55:51.121Z,102273.00
2018-09-01T20:58:19.941Z,102273.00
2018-09-01T21:00:48.868Z,102278.00
2018-09-01T21:03:17.840Z,102272.00
2018-09-01T21:05:46.638Z,102274.00
2018-09-01T21:08:15.470Z,102284.00
2018-09-01T21:10:44.301Z,102287.00
2018-09-01T21:13:13.091Z,102286.00
2018-09-01T21:15:42.190Z,102280.00
2018-09-01T21:18:11.025Z,102290.00
2018-09-01T21:20:39.876Z,102286.00
2018-09-01T21:23:08.673Z,102286.00
2018-09-01T21:25:37.463Z,102288.00
2018-09-01T21:28:06.385Z,102286.00
2018-09-01T21:30:35.249Z,102290.00
2018-09-01T21:33:04.564Z,102288.00
2018-09-01T21:35:33.346Z,102293.00
2018-09-01T21:38:02.327Z,102286.00
2018-09-01T21:40:31.126Z,102285.00
2018-09-01T21:42:59.932Z,102285.00
2018-09-01T21:45:28.735Z,102293.00
2018-09-01T21:47:57.563Z,102291.00
2018-09-01T21:50:26.383Z,102295.00
2018-09-01T21:52:55.285Z,102289.00
2018-09-01T21:55:24.081Z,102290.00
2018-09-01T21:57:52.897Z,102287.00
2018-09-01T22:00:22.339Z,102292.00
2018-09-01T22:02:51.198Z,102288.00
2018-09-01T22:05:20.119Z,102283.00
2018-09-01T22:07:49.022Z,102284.00
2018-09-01T22:10:17.846Z,102275.00
2018-09-01T22:12:46.637Z,102273.00
2018-09-01T22:15:15.497Z,102274.00
2018-09-01T22:17:44.288Z,102273.00
2018-09-01T22:20:13.129Z,102267.00
2018-09-01T22:22:42.354Z,102276.00
2018-09-01T22:25:11.164Z,102275.00
2018-09-01T22:27:39.955Z,102281.00
2018-09-01T22:30:08.780Z,102277.00
2018-09-01T22:32:37.577Z,102268.00
2018-09-01T22:35:07.961Z,102275.00
2018-09-01T22:37:36.822Z,102272.00
2018-09-01T22:40:05.678Z,102278.00
2018-09-01T22:42:34.457Z,102279.00
2018-09-01T22:45:03.602Z,102272.00
2018-09-01T22:47:33.915Z,102285.00
2018-09-01T22:50:02.720Z,102276.00
2018-09-01T22:52:31.552Z,102278.00
2018-09-01T22:55:00.524Z,102285.00
2018-09-01T22:57:29.364Z,102280.00
2018-09-01T22:59:58.223Z,102280.00
2018-09-01T23:02:27.021Z,102275.00
2018-09-01T23:04:55.835Z,102270.00
2018-09-01T23:07:24.950Z,102254.00
2018-09-01T23:09:53.746Z,102264.00
2018-09-01T23:12:22.522Z,102271.00
2018-09-01T23:14:51.414Z,102270.00
2018-09-01T23:17:20.221Z,102276.00
2018-09-01T23:19:49.063Z,102278.00
2018-09-01T23:22:17.900Z,102278.00
2018-09-01T23:24:46.718Z,102285.00
2018-09-01T23:27:15.518Z,102268.00
2018-09-01T23:29:44.655Z,102275.00
2018-09-01T23:32:13.451Z,102277.00
2018-09-01T23:34:42.347Z,102285.00
2018-09-01T23:37:11.656Z,102283.00
2018-09-01T23:39:40.449Z,102282.00
2018-09-01T23:42:09.257Z,102280.00
2018-09-01T23:44:38.068Z,102281.00
2018-09-01T23:47:07.007Z,102292.00
2018-09-01T23:49:35.796Z,102287.00
2018-09-01T23:52:04.765Z,102284.00
2018-09-01T23:54:33.608Z,102284.00
2018-09-01T23:57:02.405Z,102282.00
2018-09-01T23:59:31.243Z,102286.00
